sensor_id;sensor_type;location;lat;lon;timestamp;pressure;altitude;pressure_sealevel;temperature;humidity
82249;BME280;71851;49.092;18.918;2024-02-04T00:01:00;97415.94;;;9.25;66.22
82249;BME280;71851;49.092;18.918;2024-02-04T00:04:00;97413.16;;;9.18;66.24
82249;BME280;71851;49.092;18.918;2024-02-04T00:07:01;97404.31;;;9.27;65.45
82249;BME280;71851;49.092;18.918;2024-02-04T00:10:02;97391.38;;;9.26;65.85
82249;BME280;71851;49.092;18.918;2024-02-04T00:13:03;97382.44;;;9.12;66.14
82249;BME280;71851;49.092;18.918;2024-02-04T00:16:04;97379.16;;;9.10;66.25
82249;BME280;71851;49.092;18.918;2024-02-04T00:19:05;97377.03;;;9.06;66.55
82249;BME280;71851;49.092;18.918;2024-02-04T00:22:06;97382.81;;;9.01;66.89
82249;BME280;71851;49.092;18.918;2024-02-04T00:25:06;97382.16;;;8.99;66.56
82249;BME280;71851;49.092;18.918;2024-02-04T00:28:10;97373.69;;;8.89;67.16
82249;BME280;71851;49.092;18.918;2024-02-04T00:31:12;97390.00;;;8.99;66.61
82249;BME280;71851;49.092;18.918;2024-02-04T00:34:12;97387.06;;;8.94;66.01
82249;BME280;71851;49.092;18.918;2024-02-04T00:37:12;97389.47;;;9.04;66.26
82249;BME280;71851;49.092;18.918;2024-02-04T00:40:13;97377.41;;;9.03;65.80
82249;BME280;71851;49.092;18.918;2024-02-04T00:43:13;97375.56;;;9.11;65.56
82249;BME280;71851;49.092;18.918;2024-02-04T00:46:14;97384.50;;;9.25;65.38
82249;BME280;71851;49.092;18.918;2024-02-04T00:49:14;97377.59;;;9.32;64.93
82249;BME280;71851;49.092;18.918;2024-02-04T00:52:15;97380.75;;;9.27;65.24
82249;BME280;71851;49.092;18.918;2024-02-04T00:55:15;97380.25;;;9.24;65.43
82249;BME280;71851;49.092;18.918;2024-02-04T00:58:16;97375.53;;;9.19;65.54
82249;BME280;71851;49.092;18.918;2024-02-04T01:01:17;97373.56;;;9.21;65.73
82249;BME280;71851;49.092;18.918;2024-02-04T01:04:18;97385.50;;;9.16;66.28
82249;BME280;71851;49.092;18.918;2024-02-04T01:07:18;97376.88;;;9.15;66.47
82249;BME280;71851;49.092;18.918;2024-02-04T01:10:19;97379.97;;;9.19;66.71
82249;BME280;71851;49.092;18.918;2024-02-04T01:13:21;97385.41;;;9.01;67.21
82249;BME280;71851;49.092;18.918;2024-02-04T01:16:21;97367.38;;;9.14;67.07
82249;BME280;71851;49.092;18.918;2024-02-04T01:19:22;97361.28;;;9.22;67.22
82249;BME280;71851;49.092;18.918;2024-02-04T01:22:22;97357.81;;;9.29;66.93
82249;BME280;71851;49.092;18.918;2024-02-04T01:25:27;97358.00;;;9.20;67.32
82249;BME280;71851;49.092;18.918;2024-02-04T01:28:27;97344.28;;;9.18;67.63
82249;BME280;71851;49.092;18.918;2024-02-04T01:31:28;97347.09;;;9.08;68.71
82249;BME280;71851;49.092;18.918;2024-02-04T01:34:28;97352.47;;;9.15;68.70
82249;BME280;71851;49.092;18.918;2024-02-04T01:37:29;97333.72;;;9.03;68.67
82249;BME280;71851;49.092;18.918;2024-02-04T01:40:29;97343.34;;;9.11;69.10
82249;BME280;71851;49.092;18.918;2024-02-04T01:43:30;97354.78;;;9.10;69.12
82249;BME280;71851;49.092;18.918;2024-02-04T01:46:31;97339.03;;;9.18;69.11
82249;BME280;71851;49.092;18.918;2024-02-04T01:49:32;97353.44;;;9.14;68.92
82249;BME280;71851;49.092;18.918;2024-02-04T01:52:34;97346.94;;;9.02;69.81
82249;BME280;71851;49.092;18.918;2024-02-04T01:55:38;97329.13;;;9.05;69.76
82249;BME280;71851;49.092;18.918;2024-02-04T01:58:40;97342.38;;;9.04;69.77
82249;BME280;71851;49.092;18.918;2024-02-04T02:01:42;97338.63;;;8.98;69.86
82249;BME280;71851;49.092;18.918;2024-02-04T02:04:43;97338.34;;;8.93;69.86
82249;BME280;71851;49.092;18.918;2024-02-04T02:07:43;97351.47;;;8.77;71.22
82249;BME280;71851;49.092;18.918;2024-02-04T02:10:47;97337.91;;;8.82;71.02
82249;BME280;71851;49.092;18.918;2024-02-04T02:13:57;97332.81;;;8.80;71.21
82249;BME280;71851;49.092;18.918;2024-02-04T02:17:02;97339.34;;;8.76;71.92
82249;BME280;71851;49.092;18.918;2024-02-04T02:20:12;97339.06;;;8.71;71.82
82249;BME280;71851;49.092;18.918;2024-02-04T02:23:30;97338.88;;;8.73;72.33
82249;BME280;71851;49.092;18.918;2024-02-04T02:26:32;97339.88;;;8.72;71.57
82249;BME280;71851;49.092;18.918;2024-02-04T02:29:34;97347.75;;;8.64;72.07
82249;BME280;71851;49.092;18.918;2024-02-04T02:32:34;97353.63;;;8.74;71.94
82249;BME280;71851;49.092;18.918;2024-02-04T02:35:35;97351.00;;;8.74;72.08
82249;BME280;71851;49.092;18.918;2024-02-04T02:41:59;97322.56;;;8.63;73.34
82249;BME280;71851;49.092;18.918;2024-02-04T02:45:01;97341.34;;;8.66;73.61
82249;BME280;71851;49.092;18.918;2024-02-04T02:48:02;97336.94;;;8.67;73.72
82249;BME280;71851;49.092;18.918;2024-02-04T02:51:05;97348.03;;;8.69;74.16
82249;BME280;71851;49.092;18.918;2024-02-04T02:54:05;97339.06;;;8.71;73.28
82249;BME280;71851;49.092;18.918;2024-02-04T02:57:06;97315.53;;;8.63;73.45
82249;BME280;71851;49.092;18.918;2024-02-04T03:00:07;97324.84;;;8.66;72.85
82249;BME280;71851;49.092;18.918;2024-02-04T03:03:09;97329.94;;;8.51;72.80
82249;BME280;71851;49.092;18.918;2024-02-04T03:06:09;97315.84;;;8.60;72.67
82249;BME280;71851;49.092;18.918;2024-02-04T03:09:10;97318.16;;;8.55;72.47
82249;BME280;71851;49.092;18.918;2024-02-04T03:12:10;97318.94;;;8.72;72.11
82249;BME280;71851;49.092;18.918;2024-02-04T03:15:10;97320.41;;;8.66;72.52
82249;BME280;71851;49.092;18.918;2024-02-04T03:18:11;97331.03;;;8.73;71.92
82249;BME280;71851;49.092;18.918;2024-02-04T03:21:15;97328.75;;;8.78;71.78
82249;BME280;71851;49.092;18.918;2024-02-04T03:24:16;97336.75;;;8.76;71.63
82249;BME280;71851;49.092;18.918;2024-02-04T03:27:17;97311.75;;;8.74;71.42
82249;BME280;71851;49.092;18.918;2024-02-04T03:30:19;97301.75;;;8.77;71.43
82249;BME280;71851;49.092;18.918;2024-02-04T03:33:19;97320.22;;;8.84;71.45
82249;BME280;71851;49.092;18.918;2024-02-04T03:36:24;97324.19;;;8.72;71.55
82249;BME280;71851;49.092;18.918;2024-02-04T03:39:26;97325.13;;;8.79;71.23
82249;BME280;71851;49.092;18.918;2024-02-04T03:42:27;97317.78;;;8.74;71.10
82249;BME280;71851;49.092;18.918;2024-02-04T03:45:29;97320.75;;;8.71;71.77
82249;BME280;71851;49.092;18.918;2024-02-04T03:48:29;97315.22;;;8.58;72.24
82249;BME280;71851;49.092;18.918;2024-02-04T03:51:30;97312.94;;;8.55;72.81
82249;BME280;71851;49.092;18.918;2024-02-04T03:54:30;97300.69;;;8.47;74.02
82249;BME280;71851;49.092;18.918;2024-02-04T03:57:32;97312.75;;;8.56;73.78
82249;BME280;71851;49.092;18.918;2024-02-04T04:00:33;97302.09;;;8.66;73.16
82249;BME280;71851;49.092;18.918;2024-02-04T04:03:33;97289.88;;;8.58;74.85
82249;BME280;71851;49.092;18.918;2024-02-04T04:06:34;97286.16;;;8.45;75.25
82249;BME280;71851;49.092;18.918;2024-02-04T04:09:35;97280.13;;;8.28;75.60
82249;BME280;71851;49.092;18.918;2024-02-04T04:12:36;97290.09;;;8.17;75.59
82249;BME280;71851;49.092;18.918;2024-02-04T04:15:37;97300.22;;;8.12;75.78
82249;BME280;71851;49.092;18.918;2024-02-04T04:18:38;97302.69;;;8.05;76.33
82249;BME280;71851;49.092;18.918;2024-02-04T04:21:40;97301.22;;;8.03;75.93
82249;BME280;71851;49.092;18.918;2024-02-04T04:24:40;97273.59;;;8.08;75.58
82249;BME280;71851;49.092;18.918;2024-02-04T04:27:40;97275.56;;;7.98;74.56
82249;BME280;71851;49.092;18.918;2024-02-04T04:30:41;97269.50;;;8.06;75.19
82249;BME280;71851;49.092;18.918;2024-02-04T04:33:41;97269.69;;;8.12;76.34
82249;BME280;71851;49.092;18.918;2024-02-04T04:36:42;97269.34;;;8.23;90.61
82249;BME280;71851;49.092;18.918;2024-02-04T04:39:42;97268.53;;;8.31;80.36
82249;BME280;71851;49.092;18.918;2024-02-04T04:42:44;97267.72;;;8.30;78.41
82249;BME280;71851;49.092;18.918;2024-02-04T04:45:44;97266.88;;;8.30;75.14
82249;BME280;71851;49.092;18.918;2024-02-04T04:48:46;97264.59;;;8.35;74.26
82249;BME280;71851;49.092;18.918;2024-02-04T04:51:46;97277.84;;;8.41;74.08
82249;BME280;71851;49.092;18.918;2024-02-04T04:54:47;97289.94;;;8.34;75.22
82249;BME280;71851;49.092;18.918;2024-02-04T04:57:48;97294.66;;;8.47;80.84
82249;BME280;71851;49.092;18.918;2024-02-04T05:00:49;97314.75;;;8.38;78.36
82249;BME280;71851;49.092;18.918;2024-02-04T05:03:49;97316.41;;;8.39;77.90
82249;BME280;71851;49.092;18.918;2024-02-04T05:06:51;97315.25;;;8.42;76.35
82249;BME280;71851;49.092;18.918;2024-02-04T05:09:51;97306.41;;;8.51;74.97
82249;BME280;71851;49.092;18.918;2024-02-04T05:12:52;97301.88;;;8.37;73.81
82249;BME280;71851;49.092;18.918;2024-02-04T05:15:52;97298.13;;;8.31;74.05
82249;BME280;71851;49.092;18.918;2024-02-04T05:18:53;97305.28;;;8.21;73.62
82249;BME280;71851;49.092;18.918;2024-02-04T05:21:55;97303.66;;;8.28;73.37
82249;BME280;71851;49.092;18.918;2024-02-04T05:24:56;97292.53;;;8.18;73.49
82249;BME280;71851;49.092;18.918;2024-02-04T05:27:56;97286.34;;;8.19;73.23
82249;BME280;71851;49.092;18.918;2024-02-04T05:30:57;97284.53;;;8.28;72.57
82249;BME280;71851;49.092;18.918;2024-02-04T05:33:57;97289.44;;;8.31;75.25
82249;BME280;71851;49.092;18.918;2024-02-04T05:36:57;97307.28;;;8.03;95.66
82249;BME280;71851;49.092;18.918;2024-02-04T05:39:58;97298.00;;;9.41;100.00
82249;BME280;71851;49.092;18.918;2024-02-04T05:42:59;97310.50;;;8.45;100.00
82249;BME280;71851;49.092;18.918;2024-02-04T05:46:00;97295.66;;;8.30;100.00
82249;BME280;71851;49.092;18.918;2024-02-04T05:49:00;97296.81;;;8.35;92.58
82249;BME280;71851;49.092;18.918;2024-02-04T05:52:01;97313.13;;;8.21;89.69
82249;BME280;71851;49.092;18.918;2024-02-04T05:55:01;97319.69;;;8.25;87.58
82249;BME280;71851;49.092;18.918;2024-02-04T05:58:02;97314.28;;;8.19;83.89
82249;BME280;71851;49.092;18.918;2024-02-04T06:01:02;97318.38;;;8.05;84.93
82249;BME280;71851;49.092;18.918;2024-02-04T06:04:03;97316.25;;;8.01;82.94
82249;BME280;71851;49.092;18.918;2024-02-04T06:07:03;97325.88;;;7.92;82.35
82249;BME280;71851;49.092;18.918;2024-02-04T06:10:04;97338.28;;;7.90;80.22
82249;BME280;71851;49.092;18.918;2024-02-04T06:13:05;97333.22;;;7.89;79.33
82249;BME280;71851;49.092;18.918;2024-02-04T06:16:08;97341.88;;;7.89;78.62
82249;BME280;71851;49.092;18.918;2024-02-04T06:19:11;97353.31;;;7.88;78.44
82249;BME280;71851;49.092;18.918;2024-02-04T06:22:14;97354.78;;;8.07;77.56
82249;BME280;71851;49.092;18.918;2024-02-04T06:25:15;97344.00;;;8.10;76.75
82249;BME280;71851;49.092;18.918;2024-02-04T06:28:15;97358.56;;;8.36;73.90
82249;BME280;71851;49.092;18.918;2024-02-04T06:31:16;97360.50;;;8.50;73.26
82249;BME280;71851;49.092;18.918;2024-02-04T06:34:16;97339.91;;;8.64;72.85
82249;BME280;71851;49.092;18.918;2024-02-04T06:37:17;97359.16;;;8.71;74.09
82249;BME280;71851;49.092;18.918;2024-02-04T06:40:17;97361.47;;;8.66;76.36
82249;BME280;71851;49.092;18.918;2024-02-04T06:43:18;97374.88;;;8.63;77.96
82249;BME280;71851;49.092;18.918;2024-02-04T06:46:27;97378.00;;;8.50;77.33
82249;BME280;71851;49.092;18.918;2024-02-04T06:49:28;97370.31;;;8.40;79.18
82249;BME280;71851;49.092;18.918;2024-02-04T06:52:28;97363.13;;;8.34;79.52
82249;BME280;71851;49.092;18.918;2024-02-04T06:55:31;97356.28;;;8.25;76.13
82249;BME280;71851;49.092;18.918;2024-02-04T06:58:32;97361.00;;;8.30;74.94
82249;BME280;71851;49.092;18.918;2024-02-04T07:01:32;97352.84;;;8.33;73.89
82249;BME280;71851;49.092;18.918;2024-02-04T07:04:34;97354.31;;;8.43;72.46
82249;BME280;71851;49.092;18.918;2024-02-04T07:07:34;97357.41;;;8.55;72.40
82249;BME280;71851;49.092;18.918;2024-02-04T07:10:35;97360.00;;;8.63;71.88
82249;BME280;71851;49.092;18.918;2024-02-04T07:13:35;97362.56;;;8.87;69.42
82249;BME280;71851;49.092;18.918;2024-02-04T07:16:35;97334.22;;;8.99;69.06
82249;BME280;71851;49.092;18.918;2024-02-04T07:19:36;97343.66;;;9.08;68.39
82249;BME280;71851;49.092;18.918;2024-02-04T07:22:36;97332.53;;;9.06;68.16
82249;BME280;71851;49.092;18.918;2024-02-04T07:25:37;97332.41;;;9.07;67.55
82249;BME280;71851;49.092;18.918;2024-02-04T07:28:37;97316.44;;;9.25;67.22
82249;BME280;71851;49.092;18.918;2024-02-04T07:31:38;97319.22;;;9.23;67.08
82249;BME280;71851;49.092;18.918;2024-02-04T07:34:40;97308.72;;;9.31;67.27
82249;BME280;71851;49.092;18.918;2024-02-04T07:37:41;97312.41;;;9.45;66.14
82249;BME280;71851;49.092;18.918;2024-02-04T07:40:41;97317.41;;;9.55;64.54
82249;BME280;71851;49.092;18.918;2024-02-04T07:43:42;97325.97;;;9.49;65.38
82249;BME280;71851;49.092;18.918;2024-02-04T07:46:44;97317.72;;;9.60;64.79
82249;BME280;71851;49.092;18.918;2024-02-04T07:49:44;97319.41;;;9.75;64.34
82249;BME280;71851;49.092;18.918;2024-02-04T07:52:45;97340.31;;;9.83;63.38
82249;BME280;71851;49.092;18.918;2024-02-04T07:55:45;97349.69;;;10.00;63.62
82249;BME280;71851;49.092;18.918;2024-02-04T07:58:46;97346.31;;;9.92;63.57
82249;BME280;71851;49.092;18.918;2024-02-04T08:01:46;97343.47;;;10.01;63.60
82249;BME280;71851;49.092;18.918;2024-02-04T08:04:46;97343.41;;;10.09;63.64
82249;BME280;71851;49.092;18.918;2024-02-04T08:07:47;97334.72;;;10.09;63.57
82249;BME280;71851;49.092;18.918;2024-02-04T08:10:47;97343.25;;;10.11;63.03
82249;BME280;71851;49.092;18.918;2024-02-04T08:13:48;97352.53;;;10.36;63.16
82249;BME280;71851;49.092;18.918;2024-02-04T08:16:48;97347.44;;;10.20;64.98
82249;BME280;71851;49.092;18.918;2024-02-04T08:19:49;97351.97;;;10.03;66.79
82249;BME280;71851;49.092;18.918;2024-02-04T08:22:51;97346.09;;;10.01;69.48
82249;BME280;71851;49.092;18.918;2024-02-04T08:25:51;97350.16;;;10.26;67.98
82249;BME280;71851;49.092;18.918;2024-02-04T08:28:52;97353.81;;;10.40;68.53
82249;BME280;71851;49.092;18.918;2024-02-04T08:31:53;97356.28;;;10.42;69.73
82249;BME280;71851;49.092;18.918;2024-02-04T08:34:53;97346.41;;;10.44;70.04
82249;BME280;71851;49.092;18.918;2024-02-04T08:37:53;97345.84;;;10.34;71.34
82249;BME280;71851;49.092;18.918;2024-02-04T08:40:54;97324.59;;;10.43;68.68
82249;BME280;71851;49.092;18.918;2024-02-04T08:43:54;97334.47;;;11.29;65.59
82249;BME280;71851;49.092;18.918;2024-02-04T08:46:56;97317.84;;;12.42;61.75
82249;BME280;71851;49.092;18.918;2024-02-04T08:49:57;97311.25;;;12.52;59.06
82249;BME280;71851;49.092;18.918;2024-02-04T08:52:58;97312.22;;;13.67;56.92
82249;BME280;71851;49.092;18.918;2024-02-04T08:55:58;97308.75;;;13.06;59.12
82249;BME280;71851;49.092;18.918;2024-02-04T08:58:58;97328.34;;;14.24;57.46
82249;BME280;71851;49.092;18.918;2024-02-04T09:02:00;97344.16;;;15.03;50.22
82249;BME280;71851;49.092;18.918;2024-02-04T09:05:01;97327.25;;;15.10;49.10
82249;BME280;71851;49.092;18.918;2024-02-04T09:08:01;97333.00;;;14.16;51.29
82249;BME280;71851;49.092;18.918;2024-02-04T09:11:02;97328.72;;;14.02;50.30
82249;BME280;71851;49.092;18.918;2024-02-04T09:14:05;97334.66;;;14.49;49.78
82249;BME280;71851;49.092;18.918;2024-02-04T09:17:07;97351.31;;;15.97;46.65
82249;BME280;71851;49.092;18.918;2024-02-04T09:20:08;97329.91;;;16.79;44.18
82249;BME280;71851;49.092;18.918;2024-02-04T09:23:09;97352.38;;;17.20;43.24
82249;BME280;71851;49.092;18.918;2024-02-04T09:26:09;97374.78;;;18.37;38.64
82249;BME280;71851;49.092;18.918;2024-02-04T09:29:10;97371.31;;;17.96;100.00
82249;BME280;71851;49.092;18.918;2024-02-04T09:32:10;97402.16;;;12.76;100.00
82249;BME280;71851;49.092;18.918;2024-02-04T09:35:11;97380.50;;;29.33;100.00
82249;BME280;71851;49.092;18.918;2024-02-04T09:38:11;97367.25;;;13.77;100.00
82249;BME280;71851;49.092;18.918;2024-02-04T09:41:11;97401.44;;;14.11;100.00
82249;BME280;71851;49.092;18.918;2024-02-04T09:44:14;97399.16;;;17.14;100.00
82249;BME280;71851;49.092;18.918;2024-02-04T09:47:15;97390.63;;;18.97;100.00
82249;BME280;71851;49.092;18.918;2024-02-04T09:50:20;97380.78;;;18.97;81.73
82249;BME280;71851;49.092;18.918;2024-02-04T09:53:23;97377.72;;;20.76;42.27
82249;BME280;71851;49.092;18.918;2024-02-04T09:56:28;97376.34;;;20.28;37.69
82249;BME280;71851;49.092;18.918;2024-02-04T09:59:31;97377.41;;;21.44;36.53
82249;BME280;71851;49.092;18.918;2024-02-04T10:02:32;97364.22;;;21.37;34.39
82249;BME280;71851;49.092;18.918;2024-02-04T10:05:32;97352.91;;;19.74;36.49
82249;BME280;71851;49.092;18.918;2024-02-04T10:08:35;97359.13;;;18.59;39.13
82249;BME280;71851;49.092;18.918;2024-02-04T10:11:39;97348.19;;;17.96;40.36
82249;BME280;71851;49.092;18.918;2024-02-04T10:14:39;97341.69;;;17.26;41.50
82249;BME280;71851;49.092;18.918;2024-02-04T10:17:46;97340.72;;;16.29;43.12
82249;BME280;71851;49.092;18.918;2024-02-04T10:20:48;97337.00;;;15.74;44.91
82249;BME280;71851;49.092;18.918;2024-02-04T10:23:50;97325.50;;;15.93;44.28
82249;BME280;71851;49.092;18.918;2024-02-04T10:26:50;97309.63;;;16.17;45.54
82249;BME280;71851;49.092;18.918;2024-02-04T10:29:51;97312.69;;;15.90;44.89
82249;BME280;71851;49.092;18.918;2024-02-04T10:32:53;97298.34;;;16.78;44.83
82249;BME280;71851;49.092;18.918;2024-02-04T10:35:54;97287.34;;;17.95;41.48
82249;BME280;71851;49.092;18.918;2024-02-04T10:38:54;97279.75;;;18.10;41.00
82249;BME280;71851;49.092;18.918;2024-02-04T10:41:55;97285.84;;;18.98;38.87
82249;BME280;71851;49.092;18.918;2024-02-04T10:45:05;97292.97;;;17.39;100.00
82249;BME280;71851;49.092;18.918;2024-02-04T10:48:08;97294.53;;;16.25;48.69
82249;BME280;71851;49.092;18.918;2024-02-04T10:51:12;97287.78;;;16.53;48.62
82249;BME280;71851;49.092;18.918;2024-02-04T10:54:16;97283.03;;;17.82;45.85
82249;BME280;71851;49.092;18.918;2024-02-04T10:57:21;97265.53;;;18.57;43.69
82249;BME280;71851;49.092;18.918;2024-02-04T11:00:27;97263.84;;;20.43;39.44
82249;BME280;71851;49.092;18.918;2024-02-04T11:03:28;97235.47;;;21.57;36.25
82249;BME280;71851;49.092;18.918;2024-02-04T11:06:29;97233.06;;;22.09;33.95
82249;BME280;71851;49.092;18.918;2024-02-04T11:09:31;97223.31;;;20.79;34.93
82249;BME280;71851;49.092;18.918;2024-02-04T11:12:33;97232.56;;;21.58;34.19
82249;BME280;71851;49.092;18.918;2024-02-04T11:15:36;97236.13;;;20.82;34.02
82249;BME280;71851;49.092;18.918;2024-02-04T11:22:14;97236.22;;;21.26;34.46
82249;BME280;71851;49.092;18.918;2024-02-04T11:28:34;97225.47;;;18.98;37.52
82249;BME280;71851;49.092;18.918;2024-02-04T11:31:38;97224.44;;;18.07;40.07
82249;BME280;71851;49.092;18.918;2024-02-04T11:34:40;97230.41;;;18.43;38.44
82249;BME280;71851;49.092;18.918;2024-02-04T11:37:41;97230.47;;;18.25;38.97
82249;BME280;71851;49.092;18.918;2024-02-04T11:40:42;97220.81;;;16.82;44.12
82249;BME280;71851;49.092;18.918;2024-02-04T11:43:45;97223.19;;;16.72;44.01
82249;BME280;71851;49.092;18.918;2024-02-04T11:46:46;97213.09;;;16.63;43.34
82249;BME280;71851;49.092;18.918;2024-02-04T11:49:59;97210.38;;;16.51;43.57
82249;BME280;71851;49.092;18.918;2024-02-04T11:53:18;97237.38;;;15.10;47.71
82249;BME280;71851;49.092;18.918;2024-02-04T11:56:18;97244.28;;;14.54;50.08
82249;BME280;71851;49.092;18.918;2024-02-04T11:59:23;97236.28;;;18.45;100.00
82249;BME280;71851;49.092;18.918;2024-02-04T12:02:24;97231.88;;;16.12;100.00
82249;BME280;71851;49.092;18.918;2024-02-04T12:05:26;97235.47;;;16.85;87.52
82249;BME280;71851;49.092;18.918;2024-02-04T12:08:28;97211.31;;;15.58;55.59
82249;BME280;71851;49.092;18.918;2024-02-04T12:11:28;97222.69;;;14.77;53.54
82249;BME280;71851;49.092;18.918;2024-02-04T12:14:29;97217.25;;;14.52;53.17
82249;BME280;71851;49.092;18.918;2024-02-04T12:17:29;97212.78;;;13.48;55.83
82249;BME280;71851;49.092;18.918;2024-02-04T12:20:30;97205.09;;;12.93;57.60
82249;BME280;71851;49.092;18.918;2024-02-04T12:23:30;97201.66;;;13.65;55.60
82249;BME280;71851;49.092;18.918;2024-02-04T12:26:31;97190.31;;;13.78;54.92
82249;BME280;71851;49.092;18.918;2024-02-04T12:29:32;97183.81;;;14.00;53.75
82249;BME280;71851;49.092;18.918;2024-02-04T12:32:33;97180.72;;;14.23;53.44
82249;BME280;71851;49.092;18.918;2024-02-04T12:35:33;97169.13;;;14.43;53.79
82249;BME280;71851;49.092;18.918;2024-02-04T12:38:34;97162.44;;;14.21;52.27
82249;BME280;71851;49.092;18.918;2024-02-04T12:41:35;97161.66;;;14.14;53.13
82249;BME280;71851;49.092;18.918;2024-02-04T12:44:36;97151.53;;;13.65;54.11
82249;BME280;71851;49.092;18.918;2024-02-04T12:47:36;97152.34;;;13.53;55.23
82249;BME280;71851;49.092;18.918;2024-02-04T12:50:37;97164.66;;;13.13;56.76
82249;BME280;71851;49.092;18.918;2024-02-04T12:53:38;97148.09;;;13.32;55.55
82249;BME280;71851;49.092;18.918;2024-02-04T12:56:58;97149.53;;;13.68;55.11
82249;BME280;71851;49.092;18.918;2024-02-04T13:00:05;97120.31;;;13.30;56.16
82249;BME280;71851;49.092;18.918;2024-02-04T13:03:10;97122.34;;;13.47;55.94
82249;BME280;71851;49.092;18.918;2024-02-04T13:06:15;97122.91;;;13.04;56.39
82249;BME280;71851;49.092;18.918;2024-02-04T13:09:15;97122.94;;;13.23;56.14
82249;BME280;71851;49.092;18.918;2024-02-04T13:12:16;97118.69;;;13.68;55.25
82249;BME280;71851;49.092;18.918;2024-02-04T13:15:17;97123.53;;;13.45;56.36
82249;BME280;71851;49.092;18.918;2024-02-04T13:18:17;97124.75;;;13.16;56.80
82249;BME280;71851;49.092;18.918;2024-02-04T13:21:18;97115.63;;;13.25;57.04
82249;BME280;71851;49.092;18.918;2024-02-04T13:24:20;97117.63;;;13.04;58.35
82249;BME280;71851;49.092;18.918;2024-02-04T13:27:21;97107.75;;;13.38;56.95
82249;BME280;71851;49.092;18.918;2024-02-04T13:30:21;97117.25;;;13.59;56.49
82249;BME280;71851;49.092;18.918;2024-02-04T13:33:21;97119.88;;;13.13;56.57
82249;BME280;71851;49.092;18.918;2024-02-04T13:36:22;97118.00;;;12.94;57.02
82249;BME280;71851;49.092;18.918;2024-02-04T13:39:23;97113.91;;;12.78;57.61
82249;BME280;71851;49.092;18.918;2024-02-04T13:42:23;97114.84;;;12.58;58.32
82249;BME280;71851;49.092;18.918;2024-02-04T13:45:24;97129.00;;;12.57;58.00
82249;BME280;71851;49.092;18.918;2024-02-04T13:48:25;97122.75;;;12.58;58.19
82249;BME280;71851;49.092;18.918;2024-02-04T13:51:26;97107.59;;;12.66;57.48
82249;BME280;71851;49.092;18.918;2024-02-04T13:54:26;97091.81;;;12.79;56.34
82249;BME280;71851;49.092;18.918;2024-02-04T13:57:26;97100.16;;;12.90;57.34
82249;BME280;71851;49.092;18.918;2024-02-04T14:00:27;97097.03;;;12.60;57.12
82249;BME280;71851;49.092;18.918;2024-02-04T14:03:27;97101.09;;;12.62;56.40
82249;BME280;71851;49.092;18.918;2024-02-04T14:06:28;97088.72;;;12.63;56.98
82249;BME280;71851;49.092;18.918;2024-02-04T14:09:28;97092.72;;;12.46;57.01
82249;BME280;71851;49.092;18.918;2024-02-04T14:12:29;97076.19;;;12.65;57.33
82249;BME280;71851;49.092;18.918;2024-02-04T14:15:30;97079.66;;;12.72;57.89
82249;BME280;71851;49.092;18.918;2024-02-04T14:18:31;97082.91;;;12.74;57.23
82249;BME280;71851;49.092;18.918;2024-02-04T14:21:34;97090.63;;;12.82;57.55
82249;BME280;71851;49.092;18.918;2024-02-04T14:24:39;97086.63;;;12.39;57.78
82249;BME280;71851;49.092;18.918;2024-02-04T14:27:40;97107.31;;;12.48;58.24
82249;BME280;71851;49.092;18.918;2024-02-04T14:30:42;97114.59;;;12.46;57.66
82249;BME280;71851;49.092;18.918;2024-02-04T14:33:46;97090.91;;;12.06;58.70
82249;BME280;71851;49.092;18.918;2024-02-04T14:36:53;97094.38;;;11.72;59.55
82249;BME280;71851;49.092;18.918;2024-02-04T14:40:00;97098.50;;;11.87;59.34
82249;BME280;71851;49.092;18.918;2024-02-04T14:43:00;97098.56;;;12.01;58.81
82249;BME280;71851;49.092;18.918;2024-02-04T14:46:02;97090.16;;;11.77;59.14
82249;BME280;71851;49.092;18.918;2024-02-04T14:49:03;97099.16;;;11.96;58.86
82249;BME280;71851;49.092;18.918;2024-02-04T14:52:04;97071.69;;;12.05;58.34
82249;BME280;71851;49.092;18.918;2024-02-04T14:55:05;97075.72;;;12.01;57.74
82249;BME280;71851;49.092;18.918;2024-02-04T14:58:06;97086.41;;;11.93;58.37
82249;BME280;71851;49.092;18.918;2024-02-04T15:01:06;97071.59;;;11.85;58.18
82249;BME280;71851;49.092;18.918;2024-02-04T15:04:06;97073.91;;;12.02;58.66
82249;BME280;71851;49.092;18.918;2024-02-04T15:07:07;97069.72;;;12.14;58.54
82249;BME280;71851;49.092;18.918;2024-02-04T15:10:08;97072.88;;;12.03;59.29
82249;BME280;71851;49.092;18.918;2024-02-04T15:13:13;97055.69;;;12.00;59.13
82249;BME280;71851;49.092;18.918;2024-02-04T15:16:14;97061.13;;;11.98;57.95
82249;BME280;71851;49.092;18.918;2024-02-04T15:19:15;97053.34;;;11.77;58.38
82249;BME280;71851;49.092;18.918;2024-02-04T15:22:15;97058.50;;;11.98;58.02
82249;BME280;71851;49.092;18.918;2024-02-04T15:25:16;97055.63;;;11.87;58.55
82249;BME280;71851;49.092;18.918;2024-02-04T15:28:18;97039.19;;;11.78;58.67
82249;BME280;71851;49.092;18.918;2024-02-04T15:31:19;97052.94;;;11.74;59.45
82249;BME280;71851;49.092;18.918;2024-02-04T15:34:20;97042.47;;;14.99;100.00
82249;BME280;71851;49.092;18.918;2024-02-04T15:37:20;97027.66;;;13.46;100.00
82249;BME280;71851;49.092;18.918;2024-02-04T15:40:21;97024.84;;;12.35;100.00
82249;BME280;71851;49.092;18.918;2024-02-04T15:43:22;97030.53;;;12.32;100.00
82249;BME280;71851;49.092;18.918;2024-02-04T15:46:23;97058.63;;;12.18;100.00
82249;BME280;71851;49.092;18.918;2024-02-04T15:49:24;97076.38;;;11.75;100.00
82249;BME280;71851;49.092;18.918;2024-02-04T15:52:26;97061.91;;;11.92;100.00
82249;BME280;71851;49.092;18.918;2024-02-04T15:55:31;97056.16;;;10.57;100.00
82249;BME280;71851;49.092;18.918;2024-02-04T15:58:31;97058.78;;;10.57;100.00
82249;BME280;71851;49.092;18.918;2024-02-04T16:01:36;97046.81;;;10.69;83.06
82249;BME280;71851;49.092;18.918;2024-02-04T16:04:37;97044.88;;;10.42;76.27